Time;durP1;ratioP1;P1;durP2;ratioP2;P2;SDS_P1;SDS_P2;PMS_P1;PMS_P2;Temp;Humidity;BMP_temperature;BMP_pressure;BME280_temperature;BME280_humidity;BME280_pressure;Samples;Min_cycle;Max_cycle;Signal;HPM_P1;HPM_P2
2022/05/02 05:26:13;;;;;;;19.02;8.38;;;;;;;9.39;73.21;100657.78;1796292;79;21108;-38
2022/05/02 05:29:18;;;;;;;22.67;8.18;;;;;;;9.67;72.35;100653.28;1696220;83;20951;-38
2022/05/02 05:32:21;;;;;;;19.20;8.10;;;;;;;9.86;71.37;100659.56;1690657;83;21120;-38
2022/05/02 05:35:07;;;;;;;18.20;6.62;;;;;;;10.05;70.68;100656.23;1680182;84;21525;-38
2022/05/02 05:37:45;;;;;;;14.00;6.90;;;;;;;10.27;69.59;100660.36;1644489;85;21077;-38
2022/05/02 05:40:42;;;;;;;11.05;6.92;;;;;;;10.43;69.33;100653.03;1672578;85;21544;-42
2022/05/02 05:43:41;;;;;;;12.88;6.40;;;;;;;10.62;69.01;100657.52;1679552;83;21078;-38
2022/05/02 05:46:42;;;;;;;15.18;6.22;;;;;;;10.84;68.41;100653.28;1662328;83;21101;-38
2022/05/02 05:49:26;;;;;;;14.53;5.83;;;;;;;11.06;68.41;100655.97;1680525;83;21039;-39
2022/05/02 05:52:07;;;;;;;9.10;6.53;;;;;;;11.29;67.75;100654.30;1656591;83;21005;-38
2022/05/02 05:55:05;;;;;;;10.93;6.15;;;;;;;11.49;67.07;100653.48;1677163;84;21024;-38
2022/05/02 05:58:02;;;;;;;9.55;5.37;;;;;;;11.70;66.65;100649.56;1673738;84;21607;-38
2022/05/02 06:00:30;;;;;;;10.55;5.33;;;;;;;11.93;66.15;100650.48;1667436;84;21111;-38
2022/05/02 06:03:14;;;;;;;16.30;5.72;;;;;;;12.18;65.59;100657.92;1673862;84;21038;-38
2022/05/02 06:05:45;;;;;;;7.95;4.75;;;;;;;12.36;64.52;100646.53;1672431;84;21065;-39
2022/05/02 06:08:18;;;;;;;11.65;4.60;;;;;;;12.57;63.66;100654.78;1670657;83;21450;-39
2022/05/02 06:10:44;;;;;;;9.15;5.03;;;;;;;12.77;63.11;100647.73;1675344;83;21623;-38
2022/05/02 06:13:15;;;;;;;12.18;4.28;;;;;;;12.98;62.14;100649.39;1696085;82;21029;-39
2022/05/02 06:18:31;;;;;;;12.00;4.85;;;;;;;13.39;59.89;100648.78;1676861;83;21422;-39
2022/05/02 06:21:03;;;;;;;12.50;4.03;;;;;;;13.61;58.88;100645.14;1685131;84;21721;-38
2022/05/02 06:23:35;;;;;;;15.23;3.95;;;;;;;13.80;58.06;100645.91;1689462;83;21454;-38
2022/05/02 06:26:01;;;;;;;7.22;3.90;;;;;;;13.99;56.86;100642.23;1691495;82;21037;-38
2022/05/02 06:28:31;;;;;;;7.03;4.08;;;;;;;14.17;55.44;100645.13;1691766;83;21583;-38
2022/05/02 06:31:00;;;;;;;4.70;2.85;;;;;;;14.32;54.05;100646.32;1720480;81;21451;-39
2022/05/02 06:33:26;;;;;;;7.17;2.60;;;;;;;14.47;52.66;100636.09;1721911;82;21484;-38
2022/05/02 06:36:35;;;;;;;10.88;3.70;;;;;;;14.60;47.47;100631.56;1723947;82;21524;-39
2022/05/02 06:39:31;;;;;;;16.87;3.02;;;;;;;14.77;47.21;100632.69;1723385;82;20980;-38
2022/05/02 06:42:18;;;;;;;8.35;2.40;;;;;;;14.98;45.84;100629.80;1726156;82;21522;-39
2022/05/02 06:45:31;;;;;;;6.55;2.20;;;;;;;15.19;46.20;100628.66;1710220;82;21459;-38
2022/05/02 06:48:24;;;;;;;3.58;1.82;;;;;;;15.35;44.25;100628.84;1720134;82;20996;-38
2022/05/02 06:51:00;;;;;;;8.88;2.65;;;;;;;15.55;40.10;100632.98;1715333;82;21026;-40
2022/05/02 06:53:56;;;;;;;3.55;1.40;;;;;;;15.70;38.37;100636.26;1717686;82;21604;-38
2022/05/02 06:56:46;;;;;;;3.67;1.10;;;;;;;15.83;38.09;100636.96;1709979;82;21040;-38
2022/05/02 06:59:27;;;;;;;4.78;1.85;;;;;;;15.95;35.84;100635.89;1717553;82;21437;-38
2022/05/02 07:02:06;;;;;;;2.27;1.55;;;;;;;16.04;35.75;100633.08;1709287;82;21072;-38
2022/05/02 07:04:53;;;;;;;3.62;1.50;;;;;;;16.11;35.04;100632.52;1714205;82;21584;-38
2022/05/02 07:07:43;;;;;;;2.58;1.52;;;;;;;16.22;35.05;100631.88;1714797;82;21407;-38
2022/05/02 07:10:23;;;;;;;2.55;1.50;;;;;;;16.34;34.75;100634.30;1707095;82;21034;-38
2022/05/02 07:13:15;;;;;;;2.83;1.62;;;;;;;16.37;34.79;100628.98;1712282;82;20984;-38
2022/05/02 07:15:55;;;;;;;4.50;1.65;;;;;;;16.43;34.36;100627.54;1717554;82;21057;-38
2022/05/02 07:18:52;;;;;;;1.47;1.30;;;;;;;16.47;35.40;100627.91;1720442;82;21600;-38
2022/05/02 07:21:31;;;;;;;2.05;1.80;;;;;;;16.54;35.65;100632.63;1706185;82;21012;-38
2022/05/02 07:24:24;;;;;;;3.65;1.45;;;;;;;16.60;35.43;100625.90;1712514;82;20981;-46
2022/05/02 07:27:10;;;;;;;1.85;1.40;;;;;;;16.66;35.07;100625.78;1710207;82;21061;-46
2022/05/02 07:29:37;;;;;;;1.90;1.30;;;;;;;16.74;35.48;100621.69;1731578;81;21009;-46
2022/05/02 07:32:05;;;;;;;6.62;1.92;;;;;;;16.87;35.97;100621.88;1707876;82;21106;-46
2022/05/02 07:34:32;;;;;;;3.45;1.57;;;;;;;16.91;34.56;100618.70;1693915;84;21500;-46
2022/05/02 07:36:59;;;;;;;4.80;1.90;;;;;;;16.97;34.47;100615.48;1719280;82;21066;-46
2022/05/02 07:39:25;;;;;;;3.27;1.40;;;;;;;17.10;34.95;100615.20;1732736;82;20942;-38
2022/05/02 07:41:52;;;;;;;3.60;1.45;;;;;;;17.19;34.96;100619.85;1703608;82;21035;-38
2022/05/02 07:44:19;;;;;;;2.22;1.40;;;;;;;17.29;33.92;100622.72;1727177;82;21508;-46
2022/05/02 07:46:47;;;;;;;4.30;1.40;;;;;;;17.39;32.44;100622.48;1717975;82;21109;-46
2022/05/02 07:49:18;;;;;;;4.97;1.40;;;;;;;17.47;31.74;100624.53;1701091;82;21009;-46
2022/05/02 07:51:52;;;;;;;5.08;1.40;;;;;;;17.57;32.08;100623.42;1698899;82;21024;-46
2022/05/02 07:54:23;;;;;;;1.52;1.40;;;;;;;17.65;32.56;100625.41;1735434;82;21003;-46
2022/05/02 07:56:52;;;;;;;3.67;1.72;;;;;;;17.72;32.46;100626.16;1721051;81;21089;-46
2022/05/02 07:59:20;;;;;;;2.35;1.40;;;;;;;17.73;32.78;100628.77;1709889;82;21056;-46
2022/05/02 08:01:47;;;;;;;2.22;1.30;;;;;;;17.78;32.37;100626.02;1735989;81;21044;-45
2022/05/02 08:04:13;;;;;;;4.22;1.45;;;;;;;17.85;32.25;100616.14;1728647;81;21002;-46
2022/05/02 08:06:48;;;;;;;4.50;1.30;;;;;;;17.91;31.33;100615.98;1709850;83;21053;-45
2022/05/02 08:09:40;;;;;;;1.90;1.10;;;;;;;17.90;30.38;100612.48;1706420;81;21312;-46
2022/05/02 08:12:39;;;;;;;4.40;1.37;;;;;;;17.90;30.02;100617.77;1736902;81;21045;-37
2022/05/02 08:15:20;;;;;;;2.30;1.25;;;;;;;18.00;30.91;100610.02;1736068;81;21749;-37
2022/05/02 08:18:25;;;;;;;3.33;1.25;;;;;;;18.12;30.50;100608.83;1733189;81;20993;-37
2022/05/02 08:20:59;;;;;;;6.15;1.50;;;;;;;18.22;30.10;100612.98;1728849;81;21205;-37
2022/05/02 08:29:56;;;;;;;5.33;1.35;;;;;;;18.34;28.53;100606.49;1726260;82;20972;-37
2022/05/02 08:33:02;;;;;;;1.37;1.17;;;;;;;18.37;27.28;100601.09;1721339;82;21612;-38
2022/05/02 08:36:00;;;;;;;2.98;1.42;;;;;;;18.45;27.07;100597.80;1729604;82;21007;-38
2022/05/02 08:38:46;;;;;;;3.92;1.42;;;;;;;18.62;28.78;100596.01;1721635;82;21557;-39
2022/05/02 08:41:40;;;;;;;6.47;1.40;;;;;;;18.74;27.97;100592.17;1723282;82;21105;-38
2022/05/02 08:44:37;;;;;;;3.98;1.27;;;;;;;18.86;27.54;100586.51;1725317;82;21472;-38
2022/05/02 08:47:20;;;;;;;4.45;2.12;;;;;;;18.96;27.67;100576.48;1723736;82;21043;-38
2022/05/02 08:50:21;;;;;;;5.40;1.52;;;;;;;18.97;27.79;100568.96;1719732;82;21423;-38
2022/05/02 08:53:05;;;;;;;3.12;1.55;;;;;;;18.97;27.41;100572.48;1665039;84;21441;-38
2022/05/02 08:56:10;;;;;;;9.83;1.20;;;;;;;19.00;27.89;100576.80;1659361;84;21068;-38
2022/05/02 08:59:03;;;;;;;2.62;1.25;;;;;;;19.11;26.10;100570.27;1664501;84;21021;-38
2022/05/02 09:01:50;;;;;;;2.77;1.10;;;;;;;19.16;27.68;100570.13;1662722;85;21029;-40
2022/05/02 09:04:34;;;;;;;2.35;1.42;;;;;;;19.23;27.29;100571.66;1674843;85;21053;-38
2022/05/02 09:07:29;;;;;;;1.40;1.30;;;;;;;19.30;26.46;100562.59;1684376;85;21160;-38
2022/05/02 09:10:24;;;;;;;3.33;1.25;;;;;;;19.44;26.57;100562.63;1682499;85;21529;-38
2022/05/02 09:13:12;;;;;;;3.70;1.40;;;;;;;19.55;25.84;100557.84;1684184;84;21089;-45
2022/05/02 09:16:16;;;;;;;3.08;1.40;;;;;;;19.61;27.05;100559.87;1677170;85;21061;-45
2022/05/02 09:19:01;;;;;;;7.60;1.30;;;;;;;19.64;27.35;100550.45;1685703;84;21097;-39
2022/05/02 09:21:48;;;;;;;6.65;1.80;;;;;;;19.77;27.36;100554.03;1674581;84;21061;-39
2022/05/02 09:24:41;;;;;;;8.98;2.20;;;;;;;19.82;25.35;100547.64;1675302;84;21045;-47
2022/05/02 09:27:24;;;;;;;4.67;1.10;;;;;;;19.75;26.14;100549.24;1682001;84;21076;-39
2022/05/02 09:30:20;;;;;;;6.53;1.42;;;;;;;19.67;26.65;100545.53;1681261;82;21008;-39
2022/05/02 09:33:21;;;;;;;2.27;1.67;;;;;;;19.75;25.79;100546.58;1673109;83;21035;-39
2022/05/02 09:35:54;;;;;;;2.05;1.42;;;;;;;19.83;25.96;100533.91;1676589;84;21466;-47
2022/05/02 09:38:25;;;;;;;2.70;1.60;;;;;;;19.84;25.01;100532.55;1701362;82;21637;-39
2022/05/02 09:41:14;;;;;;;6.30;1.55;;;;;;;19.81;26.14;100531.31;1705693;82;20980;-46
2022/05/02 09:50:16;;;;;;;6.50;1.45;;;;;;;19.95;25.60;100519.38;1722289;81;21382;-47
2022/05/02 09:52:59;;;;;;;4.33;1.40;;;;;;;20.08;24.98;100518.01;1711049;81;21890;-39
2022/05/02 09:59:10;;;;;;;3.80;1.15;;;;;;;20.18;25.33;100516.30;1707870;82;21010;-47
2022/05/02 10:01:47;;;;;;;2.65;1.30;;;;;;;20.31;26.09;100514.52;1712821;82;21486;-46
2022/05/02 10:04:53;;;;;;;6.60;1.77;;;;;;;20.41;24.93;100508.81;1727110;82;21010;-39
2022/05/02 10:07:24;;;;;;;3.35;1.40;;;;;;;20.54;25.65;100502.61;1731119;83;21053;-47
2022/05/02 10:10:11;;;;;;;3.05;1.30;;;;;;;20.49;25.70;100494.41;1720039;82;20990;-38
2022/05/02 10:12:53;;;;;;;1.87;1.40;;;;;;;20.50;26.19;100494.34;1720024;83;21049;-46
2022/05/02 10:16:01;;;;;;;1.42;1.20;;;;;;;20.62;25.67;100493.00;1722471;82;21037;-39
2022/05/02 10:19:01;;;;;;;2.77;1.37;;;;;;;20.58;25.11;100487.39;1716636;82;21065;-45
2022/05/02 10:21:54;;;;;;;5.80;1.52;;;;;;;20.52;24.84;100498.26;1722613;82;21849;-39
2022/05/02 10:24:45;;;;;;;4.42;1.57;;;;;;;20.69;24.92;100486.05;1728740;82;21018;-47
2022/05/02 10:27:46;;;;;;;4.78;1.62;;;;;;;20.97;23.81;100482.31;1717899;82;21014;-46
2022/05/02 10:30:13;;;;;;;3.42;1.30;;;;;;;21.30;23.72;100475.27;1708148;83;21604;-39
2022/05/02 10:32:56;;;;;;;2.22;1.50;;;;;;;21.72;24.46;100471.25;1708855;83;21124;-45
2022/05/02 10:35:25;;;;;;;5.53;1.50;;;;;;;22.05;23.69;100460.45;1702564;83;21039;-38
2022/05/02 10:37:57;;;;;;;12.00;1.85;;;;;;;22.42;23.32;100453.94;1691650;84;21005;-38
2022/05/02 10:40:39;;;;;;;3.92;1.30;;;;;;;22.75;22.58;100462.16;1645844;86;21141;-38
2022/05/02 10:43:08;;;;;;;2.33;1.17;;;;;;;23.06;22.33;100465.56;1678254;84;21042;-39
2022/05/02 10:45:37;;;;;;;2.72;1.70;;;;;;;23.65;22.16;100463.53;1678253;84;21526;-46
2022/05/02 10:48:21;;;;;;;3.33;1.35;;;;;;;24.25;21.53;100464.80;1678032;85;21564;-46
2022/05/02 10:51:05;;;;;;;3.47;1.32;;;;;;;24.79;21.81;100453.36;1677774;84;21162;-46
2022/05/02 10:54:04;;;;;;;1.82;1.15;;;;;;;25.18;20.86;100461.45;1680901;84;21088;-45
2022/05/02 10:56:45;;;;;;;6.97;1.37;;;;;;;25.60;19.30;100450.48;1677913;84;21627;-48
2022/05/02 10:59:14;;;;;;;10.48;1.42;;;;;;;25.34;18.87;100457.37;1678244;84;21073;-47
2022/05/02 11:02:16;;;;;;;1.72;1.00;;;;;;;24.66;19.53;100458.55;1682873;83;21688;-39
2022/05/02 11:05:09;;;;;;;6.58;1.65;;;;;;;24.01;19.02;100454.95;1680617;84;21034;-40
2022/05/02 11:07:57;;;;;;;2.10;1.20;;;;;;;23.71;20.44;100449.86;1649748;84;21101;-40
2022/05/02 11:10:32;;;;;;;2.27;1.65;;;;;;;23.93;19.89;100446.94;1639311;86;21042;-40
2022/05/02 11:13:14;;;;;;;1.55;1.15;;;;;;;24.39;19.12;100445.36;1646425;85;21055;-46
2022/05/02 11:15:59;;;;;;;3.65;1.30;;;;;;;24.46;18.89;100445.88;1653330;85;21079;-41
2022/05/02 11:21:52;;;;;;;3.37;1.20;;;;;;;25.05;19.07;100444.31;1639071;86;21637;-40
2022/05/02 11:24:50;;;;;;;1.40;1.12;;;;;;;24.85;19.19;100438.30;1626843;86;21056;-48
2022/05/02 11:27:42;;;;;;;3.35;1.40;;;;;;;24.55;19.62;100432.88;1661688;85;21069;-47
2022/05/02 11:30:11;;;;;;;4.55;1.30;;;;;;;23.95;19.89;100432.57;1716883;83;21069;-47
2022/05/02 11:32:50;;;;;;;4.92;2.72;;;;;;;23.49;20.37;100434.08;1686411;85;21040;-47
2022/05/02 11:35:23;;;;;;;7.45;2.98;;;;;;;23.22;21.23;100429.18;1686925;85;21127;-47
2022/05/02 11:38:11;;;;;;;10.25;2.08;;;;;;;22.70;21.74;100435.70;1671998;85;21059;-47
2022/05/02 11:41:11;;;;;;;4.03;1.12;;;;;;;22.70;21.74;100435.70;1656527;85;21080;-39
2022/05/02 11:43:38;;;;;;;7.60;4.70;;;;;;;22.42;21.81;100426.81;1680185;84;21528;-47
2022/05/02 11:46:22;;;;;;;4.10;1.92;;;;;;;22.07;21.59;100422.22;1672591;84;21164;-40
2022/05/02 11:49:17;;;;;;;5.05;1.82;;;;;;;21.77;21.59;100425.33;1661973;85;21628;-39
2022/05/02 11:51:52;;;;;;;5.65;1.67;;;;;;;21.44;21.92;100424.52;1667778;85;21409;-47
2022/05/02 11:54:35;;;;;;;1.62;1.32;;;;;;;21.18;21.94;100416.75;1661289;85;21031;-40
2022/05/02 11:57:25;;;;;;;1.40;1.10;;;;;;;20.92;21.85;100417.34;1658911;86;21061;-47
2022/05/02 12:00:12;;;;;;;3.20;1.15;;;;;;;20.75;23.29;100415.83;1636148;86;21872;-40
2022/05/02 12:02:51;;;;;;;1.87;1.32;;;;;;;20.64;23.08;100408.31;1652249;85;21079;-40
2022/05/02 12:05:27;;;;;;;2.10;1.32;;;;;;;20.66;22.46;100406.91;1684695;84;21097;-40
2022/05/02 12:08:03;;;;;;;1.77;1.25;;;;;;;20.72;22.36;100401.34;1712880;82;21008;-40
2022/05/02 12:10:40;;;;;;;4.92;1.40;;;;;;;20.97;22.13;100403.87;1665198;84;21157;-39
2022/05/02 12:13:12;;;;;;;10.98;1.57;;;;;;;21.14;22.86;100392.53;1678151;85;21070;-40
2022/05/02 12:16:00;;;;;;;5.62;1.50;;;;;;;21.23;22.61;100390.83;1693631;84;21123;-46
2022/05/02 12:18:56;;;;;;;3.35;1.55;;;;;;;21.27;23.03;100383.09;1674709;84;21132;-40
2022/05/02 12:21:35;;;;;;;1.95;1.22;;;;;;;21.34;23.11;100386.38;1660540;85;21133;-46
